Time;durP1;ratioP1;P1;durP2;ratioP2;P2;SDS_P1;SDS_P2;PMS_P1;PMS_P2;Temp;Humidity;BMP_temperature;BMP_pressure;BME280_temperature;BME280_humidity;BME280_pressure;Samples;Min_cycle;Max_cycle;Signal;HPM_P1;HPM_P2
2022/05/28 00:00:44;;;;;;;2.15;0.98;;;;;;;20.21;54.03;101572.19;25678903;23;20348;-62
2022/05/28 00:10:46;;;;;;;2.78;0.75;;;;;;;20.18;53.94;101564.34;25680076;23;20020;-62
2022/05/28 00:20:47;;;;;;;2.60;1.00;;;;;;;20.18;53.75;101562.53;25678721;23;20036;-63
2022/05/28 00:30:49;;;;;;;2.05;0.80;;;;;;;20.17;54.46;101566.22;25678239;23;20032;-62
2022/05/28 00:40:54;;;;;;;1.95;0.60;;;;;;;20.17;54.60;101565.34;25678334;23;20054;-62
2022/05/28 00:50:58;;;;;;;4.05;1.15;;;;;;;20.16;55.01;101574.44;25652024;23;20039;-62
2022/05/28 01:01:00;;;;;;;2.97;1.13;;;;;;;20.11;54.90;101581.13;25625681;23;20020;-62
2022/05/28 01:11:33;;;;;;;1.58;0.75;;;;;;;20.11;54.86;101578.41;25676460;23;20033;-62
2022/05/28 01:21:56;;;;;;;2.08;0.68;;;;;;;20.09;54.74;101583.09;25649904;23;20021;-62
2022/05/28 01:31:59;;;;;;;2.05;0.80;;;;;;;20.10;54.58;101592.06;25675965;23;20083;-62
2022/05/28 01:42:01;;;;;;;1.98;0.68;;;;;;;20.06;55.20;101577.09;25677540;23;20025;-62
2022/05/28 01:52:03;;;;;;;2.65;0.60;;;;;;;20.04;54.82;101588.06;25650176;23;20490;-62
2022/05/28 02:02:07;;;;;;;1.95;0.80;;;;;;;19.98;54.82;101572.38;25623033;23;20013;-62
2022/05/28 02:12:09;;;;;;;2.75;0.75;;;;;;;20.01;54.00;101574.81;25652260;23;20391;-61
2022/05/28 02:22:17;;;;;;;3.08;1.00;;;;;;;20.00;53.40;101575.81;25682836;23;20075;-62
2022/05/28 02:32:21;;;;;;;3.03;0.93;;;;;;;19.84;53.22;101552.78;25658182;23;20027;-62
2022/05/28 02:42:23;;;;;;;2.17;0.63;;;;;;;19.94;53.23;101566.38;25679468;23;20017;-62
2022/05/28 02:52:25;;;;;;;2.30;0.75;;;;;;;19.93;53.44;101564.66;25677768;23;20472;-60
2022/05/28 03:02:27;;;;;;;2.17;0.70;;;;;;;19.91;55.15;101561.25;25650093;23;20075;-61
2022/05/28 03:12:30;;;;;;;1.65;0.70;;;;;;;19.90;55.85;101554.13;25676294;23;20032;-61
2022/05/28 03:22:31;;;;;;;3.05;0.82;;;;;;;19.90;57.38;101564.94;25675077;23;20474;-65
2022/05/28 03:32:33;;;;;;;1.63;0.55;;;;;;;19.90;60.71;101573.03;25686221;23;20090;-65
2022/05/28 03:42:35;;;;;;;2.75;0.68;;;;;;;19.87;60.46;101573.28;25684844;23;20021;-65
2022/05/28 03:52:36;;;;;;;3.58;1.10;;;;;;;19.84;59.29;101571.69;25659545;23;20075;-66
2022/05/28 04:02:37;;;;;;;3.33;1.48;;;;;;;19.80;59.09;101575.63;25685353;23;20017;-65
2022/05/28 04:12:39;;;;;;;3.65;0.77;;;;;;;19.79;59.41;101583.91;25683933;23;20460;-65
2022/05/28 04:22:41;;;;;;;2.40;0.75;;;;;;;19.77;59.07;101589.41;25683789;23;20020;-65
2022/05/28 04:32:42;;;;;;;1.55;0.70;;;;;;;19.77;58.09;101597.53;25684370;23;20074;-64
2022/05/28 04:42:43;;;;;;;2.97;0.98;;;;;;;19.77;57.46;101602.94;25685698;23;20028;-65
2022/05/28 04:52:45;;;;;;;4.15;1.30;;;;;;;19.76;57.68;101606.63;25684284;23;20016;-65
2022/05/28 05:02:46;;;;;;;3.50;1.20;;;;;;;19.58;57.40;101581.19;25682358;23;20375;-65
2022/05/28 05:12:48;;;;;;;2.33;0.80;;;;;;;19.61;57.00;101589.03;25683490;23;20024;-65
2022/05/28 05:22:52;;;;;;;2.75;0.90;;;;;;;19.57;56.23;101591.13;25680592;23;20017;-65
2022/05/28 05:32:55;;;;;;;6.50;2.58;;;;;;;19.77;58.57;101629.94;25674485;23;20082;-65
2022/05/28 05:42:58;;;;;;;6.70;1.45;;;;;;;19.79;60.16;101638.78;25672261;23;20024;-65
2022/05/28 05:53:00;;;;;;;4.82;1.55;;;;;;;19.79;60.82;101641.47;25680759;23;20031;-65
2022/05/28 06:03:02;;;;;;;3.00;0.95;;;;;;;19.78;60.47;101636.22;25679381;23;20356;-65
2022/05/28 06:13:04;;;;;;;4.25;1.42;;;;;;;19.82;59.12;101646.63;25679429;23;20028;-65
2022/05/28 06:23:05;;;;;;;2.78;1.05;;;;;;;19.84;58.31;101660.84;25650570;23;20024;-65
2022/05/28 06:33:07;;;;;;;3.33;1.08;;;;;;;19.85;58.05;101656.31;25671421;23;20045;-65
2022/05/28 06:43:08;;;;;;;5.15;1.10;;;;;;;19.90;57.74;101659.50;25664179;23;20079;-63
2022/05/28 06:53:10;;;;;;;2.38;0.90;;;;;;;19.95;57.33;101649.16;25665258;23;20467;-63
2022/05/28 07:03:13;;;;;;;2.83;0.90;;;;;;;19.96;56.88;101671.66;25666085;23;20083;-64
2022/05/28 07:13:16;;;;;;;3.90;1.40;;;;;;;19.98;56.68;101686.72;25667665;23;20024;-73
2022/05/28 07:23:19;;;;;;;3.45;1.05;;;;;;;19.99;56.86;101691.16;25675596;23;20028;-64
2022/05/28 07:33:21;;;;;;;2.92;0.90;;;;;;;20.04;56.81;101696.16;25673318;23;20028;-64
2022/05/28 07:43:23;;;;;;;4.28;0.77;;;;;;;20.09;57.39;101707.44;25658186;23;20013;-63
2022/05/28 07:53:25;;;;;;;2.28;0.90;;;;;;;20.14;57.19;101707.91;25653847;23;20024;-65
2022/05/28 08:03:26;;;;;;;2.20;1.05;;;;;;;20.26;57.10;101711.41;25656440;23;20027;-65
2022/05/28 08:13:28;;;;;;;3.55;1.00;;;;;;;20.61;55.80;101700.34;25655976;23;20036;-65
2022/05/28 08:23:31;;;;;;;2.53;1.00;;;;;;;20.94;54.60;101696.53;25631766;23;20028;-64
2022/05/28 08:33:32;;;;;;;5.18;1.27;;;;;;;21.47;52.86;101713.47;25667467;23;20036;-65
2022/05/28 08:43:36;;;;;;;2.92;1.10;;;;;;;21.20;53.26;101698.72;25664384;23;20519;-65
2022/05/28 08:53:45;;;;;;;4.10;1.37;;;;;;;20.91;53.69;101677.00;25668321;23;20475;-64
2022/05/28 09:03:57;;;;;;;6.85;1.23;;;;;;;20.82;54.09;101722.84;25672079;23;20027;-65
2022/05/28 09:14:08;;;;;;;4.57;1.00;;;;;;;20.73;57.04;101724.47;25640051;23;20025;-64
2022/05/28 09:24:18;;;;;;;4.60;1.05;;;;;;;20.75;58.98;101715.34;25665821;23;20024;-64
2022/05/28 09:34:35;;;;;;;5.03;1.55;;;;;;;20.83;59.41;101710.19;25661618;23;20020;-64
2022/05/28 09:45:00;;;;;;;4.32;1.50;;;;;;;20.81;59.09;101709.47;25610772;23;20021;-63
2022/05/28 09:55:13;;;;;;;2.58;1.05;;;;;;;20.82;58.34;101714.72;25659044;23;20024;-63
2022/05/28 10:05:20;;;;;;;2.70;0.95;;;;;;;20.83;58.47;101723.72;25663126;23;20027;-63
2022/05/28 10:15:37;;;;;;;3.53;1.48;;;;;;;20.80;57.64;101721.28;25636254;23;20067;-64
2022/05/28 10:25:47;;;;;;;3.97;1.50;;;;;;;20.81;56.64;101715.72;25644736;23;20021;-63
2022/05/28 10:35:49;;;;;;;2.83;1.20;;;;;;;20.84;56.13;101706.47;25674428;23;20358;-64
2022/05/28 10:45:57;;;;;;;3.95;1.40;;;;;;;20.81;55.41;101736.53;25673851;23;20075;-64
2022/05/28 10:56:04;;;;;;;4.70;1.33;;;;;;;20.76;55.25;101728.75;25674364;23;20025;-64
2022/05/28 11:06:12;;;;;;;4.15;1.10;;;;;;;20.79;55.21;101722.25;25662924;23;20345;-64
2022/05/28 11:16:51;;;;;;;3.42;1.23;;;;;;;20.83;55.13;101710.19;25661541;23;20025;-64
2022/05/28 11:27:11;;;;;;;3.50;1.13;;;;;;;20.86;55.05;101712.59;25667334;23;20079;-64
2022/05/28 11:37:18;;;;;;;2.15;0.90;;;;;;;20.83;54.80;101721.84;25660487;23;20071;-64
2022/05/28 11:47:33;;;;;;;3.10;1.10;;;;;;;20.85;54.63;101721.72;25630301;23;20677;-64
2022/05/28 11:57:50;;;;;;;3.25;1.10;;;;;;;20.89;53.99;101709.63;25659340;23;20039;-64
2022/05/28 12:08:05;;;;;;;5.55;1.38;;;;;;;20.92;54.07;101690.41;25655926;23;20840;-68
2022/05/28 12:18:22;;;;;;;3.00;1.20;;;;;;;20.91;53.59;101695.94;25663620;23;20094;-64
2022/05/28 12:28:31;;;;;;;2.92;1.05;;;;;;;20.94;53.18;101687.53;25658292;23;20443;-64
2022/05/28 12:39:00;;;;;;;3.67;0.90;;;;;;;20.95;53.09;101690.13;25629265;23;20020;-64
2022/05/28 12:49:37;;;;;;;3.88;1.33;;;;;;;20.93;52.90;101681.28;25626921;23;20024;-65
2022/05/28 12:59:45;;;;;;;3.00;1.55;;;;;;;20.94;53.42;101666.75;25655650;23;20075;-65
2022/05/28 13:09:48;;;;;;;5.13;1.38;;;;;;;20.94;53.90;101674.88;25665345;23;20016;-65
2022/05/28 13:20:12;;;;;;;3.55;1.02;;;;;;;20.94;53.44;101682.13;25642374;23;20024;-64
2022/05/28 13:30:27;;;;;;;4.00;1.40;;;;;;;20.94;53.32;101674.00;25625960;23;20032;-64
2022/05/28 13:40:30;;;;;;;3.20;0.98;;;;;;;20.96;53.57;101653.94;25625090;23;20071;-64
2022/05/28 13:50:38;;;;;;;3.60;0.88;;;;;;;20.98;53.35;101651.94;25647926;23;20017;-64
2022/05/28 14:00:40;;;;;;;4.15;1.08;;;;;;;20.98;53.09;101657.38;25660389;23;20071;-63
2022/05/28 14:10:42;;;;;;;3.78;1.00;;;;;;;20.97;52.99;101642.13;25660521;23;20101;-63
2022/05/28 14:20:43;;;;;;;3.88;1.23;;;;;;;20.98;53.08;101637.53;25662175;23;20022;-63
2022/05/28 14:30:45;;;;;;;4.35;1.10;;;;;;;20.97;52.93;101644.81;25659513;23;20079;-64
2022/05/28 14:40:50;;;;;;;4.18;1.20;;;;;;;21.00;54.59;101644.53;25657333;23;20067;-63
2022/05/28 14:50:54;;;;;;;2.78;1.00;;;;;;;20.81;55.41;101614.75;25631197;23;20024;-63
2022/05/28 15:01:07;;;;;;;2.17;1.10;;;;;;;21.04;54.82;101641.56;25634961;23;20075;-63
2022/05/28 15:11:21;;;;;;;2.85;1.08;;;;;;;20.88;54.72;101618.59;25659492;23;20021;-64
2022/05/28 15:21:22;;;;;;;4.57;1.23;;;;;;;21.06;55.25;101658.50;25667292;23;20016;-66
2022/05/28 15:31:23;;;;;;;4.40;1.20;;;;;;;21.03;55.32;101653.38;25657278;23;20028;-65
2022/05/28 15:41:25;;;;;;;2.33;1.00;;;;;;;21.07;54.74;101641.28;25660352;23;20052;-64
2022/05/28 15:51:26;;;;;;;3.17;1.17;;;;;;;21.11;55.99;101632.75;25657325;23;20028;-63
2022/05/28 16:01:29;;;;;;;2.40;1.20;;;;;;;21.24;59.10;101616.25;25667349;23;20020;-63
2022/05/28 16:11:34;;;;;;;4.97;1.25;;;;;;;21.10;59.33;101585.00;25672898;23;20024;-64
2022/05/28 16:21:35;;;;;;;2.22;0.95;;;;;;;21.33;59.67;101622.63;25641045;23;20029;-62
2022/05/28 16:31:41;;;;;;;13.32;4.57;;;;;;;21.43;63.01;101633.50;25634240;23;20078;-63
2022/05/28 16:41:43;;;;;;;10.18;3.72;;;;;;;21.46;64.00;101611.53;25666812;23;20016;-62
2022/05/28 16:51:44;;;;;;;7.38;2.95;;;;;;;21.45;63.87;101609.81;25659005;23;20090;-63
2022/05/28 17:01:46;;;;;;;7.75;3.00;;;;;;;21.34;62.76;101591.00;25658471;23;20024;-63
2022/05/28 17:11:49;;;;;;;8.68;2.80;;;;;;;21.36;61.96;101618.81;25664479;23;20026;-63
2022/05/28 17:21:51;;;;;;;6.93;2.67;;;;;;;21.34;61.30;101612.69;25628425;23;20587;-66
2022/05/28 17:31:52;;;;;;;6.72;2.08;;;;;;;21.27;60.78;101597.00;25667217;23;20027;-63
2022/05/28 17:41:54;;;;;;;7.10;2.15;;;;;;;21.27;60.69;101598.84;25664303;23;20112;-59
2022/05/28 17:51:56;;;;;;;4.38;1.73;;;;;;;21.27;60.72;101591.59;25667436;23;20027;-60
2022/05/28 18:01:57;;;;;;;3.75;1.58;;;;;;;21.21;59.96;101600.28;25678240;23;20083;-60
2022/05/28 18:11:59;;;;;;;3.63;1.45;;;;;;;21.13;59.51;101617.22;25657810;23;20079;-60
2022/05/28 18:22:02;;;;;;;4.15;1.33;;;;;;;20.94;58.62;101599.09;25682148;23;20016;-60
2022/05/28 18:32:04;;;;;;;3.78;1.38;;;;;;;20.08;58.81;101454.34;25688392;23;20482;-60
2022/05/28 18:42:06;;;;;;;5.15;1.60;;;;;;;20.72;59.14;101563.09;25658772;23;20021;-60
2022/05/28 18:52:09;;;;;;;4.70;1.67;;;;;;;20.90;58.16;101573.31;25659941;23;20020;-60
2022/05/28 19:02:14;;;;;;;3.97;1.27;;;;;;;20.86;58.63;101566.47;25685330;23;20028;-60
2022/05/28 19:12:22;;;;;;;4.22;1.42;;;;;;;20.83;58.57;101556.75;25687087;23;20396;-60
2022/05/28 19:22:39;;;;;;;3.78;1.50;;;;;;;20.80;58.24;101551.63;25663362;23;20025;-59
2022/05/28 19:32:41;;;;;;;3.83;1.70;;;;;;;20.79;58.22;101546.38;25679327;23;20020;-59
2022/05/28 19:42:52;;;;;;;5.00;1.70;;;;;;;20.75;57.89;101543.06;25672508;23;20024;-60
2022/05/28 19:52:55;;;;;;;4.47;1.20;;;;;;;20.72;57.41;101538.75;25645682;23;20478;-60
2022/05/28 20:02:57;;;;;;;11.13;1.10;;;;;;;20.51;57.41;101508.25;25667958;23;20028;-59
2022/05/28 20:12:59;;;;;;;8.27;2.60;;;;;;;20.68;62.56;101536.50;25671590;23;20025;-60
2022/05/28 20:23:04;;;;;;;5.15;2.08;;;;;;;20.65;63.18;101520.53;25674914;23;20032;-60
2022/05/28 20:33:08;;;;;;;5.60;1.90;;;;;;;20.61;61.70;101514.53;25629317;23;20027;-60
2022/05/28 20:43:10;;;;;;;4.30;1.63;;;;;;;20.56;60.94;101506.00;25649317;23;20017;-60
2022/05/28 20:53:21;;;;;;;4.53;1.65;;;;;;;20.53;60.43;101496.28;25674097;23;20082;-60
2022/05/28 21:03:37;;;;;;;3.45;1.52;;;;;;;20.49;59.88;101485.91;25647824;23;20028;-59
2022/05/28 21:13:39;;;;;;;3.28;1.45;;;;;;;20.42;59.48;101478.34;25646868;23;20016;-59
2022/05/28 21:23:41;;;;;;;4.80;1.67;;;;;;;20.39;58.81;101469.66;25673322;23;20066;-60
2022/05/28 21:33:42;;;;;;;3.38;1.30;;;;;;;20.35;58.45;101463.69;25678359;23;20064;-59
2022/05/28 21:43:44;;;;;;;4.03;1.20;;;;;;;20.33;58.09;101457.56;25673063;23;20025;-60
2022/05/28 21:53:49;;;;;;;4.22;1.52;;;;;;;20.25;58.59;101438.44;25671945;23;20052;-59
2022/05/28 22:03:54;;;;;;;3.78;1.30;;;;;;;20.12;59.26;101409.00;25672322;23;20024;-60
2022/05/28 22:13:55;;;;;;;3.05;1.50;;;;;;;20.30;59.84;101433.47;25674004;23;20016;-60
2022/05/28 22:23:57;;;;;;;2.55;1.10;;;;;;;20.28;59.18;101421.94;25671349;23;20028;-59
2022/05/28 22:33:58;;;;;;;2.83;1.20;;;;;;;20.26;59.17;101411.28;25678058;23;20028;-60
2022/05/28 22:54:20;;;;;;;2.28;1.05;;;;;;;20.23;58.76;101391.78;25656809;23;20032;-60
2022/05/28 23:04:22;;;;;;;2.47;1.00;;;;;;;20.21;59.00;101377.56;25653519;23;20036;-60
2022/05/28 23:14:24;;;;;;;4.50;1.10;;;;;;;20.19;58.99;101366.88;25677451;23;20020;-60
2022/05/28 23:34:45;;;;;;;2.22;1.10;;;;;;;20.14;58.44;101345.69;25680226;23;20056;-59
2022/05/28 23:44:47;;;;;;;4.05;1.38;;;;;;;20.13;58.20;101327.75;25674768;23;20025;-59
2022/05/28 23:54:49;;;;;;;3.28;1.27;;;;;;;20.11;56.89;101328.91;25679199;23;20027;-60
